createdAt,value
2022-08-28T00:00:12.630Z,99.03
2022-08-28T00:02:40.874Z,99.81
2022-08-28T00:05:11.092Z,98.81
2022-08-28T00:07:38.879Z,99.17
2022-08-28T00:10:09.159Z,99.52
2022-08-28T00:12:37.805Z,99.67
2022-08-28T00:15:12.900Z,100.00
2022-08-28T00:17:40.935Z,99.81
2022-08-28T00:20:10.373Z,100.00
2022-08-28T00:22:39.209Z,99.46
2022-08-28T00:25:09.516Z,100.00
2022-08-28T00:27:52.528Z,99.46
2022-08-28T00:30:41.995Z,100.00
2022-08-28T00:33:17.228Z,100.00
2022-08-28T00:35:44.791Z,100.00
2022-08-28T00:38:14.264Z,100.00
2022-08-28T00:40:44.523Z,100.00
2022-08-28T00:43:25.037Z,100.00
2022-08-28T00:45:53.383Z,100.00
2022-08-28T00:48:21.125Z,100.00
2022-08-28T00:51:07.553Z,100.00
2022-08-28T00:53:35.062Z,100.00
2022-08-28T00:56:12.246Z,100.00
2022-08-28T00:58:43.481Z,100.00
2022-08-28T01:01:13.214Z,100.00
2022-08-28T01:03:41.166Z,100.00
2022-08-28T01:06:09.225Z,100.00
2022-08-28T01:08:40.857Z,100.00
2022-08-28T01:11:10.029Z,100.00
2022-08-28T01:13:41.502Z,100.00
2022-08-28T01:16:09.312Z,100.00
2022-08-28T01:18:37.474Z,100.00
2022-08-28T01:21:20.621Z,100.00
2022-08-28T01:23:53.388Z,100.00
2022-08-28T01:26:21.487Z,100.00
2022-08-28T01:28:49.080Z,100.00
2022-08-28T01:31:17.744Z,100.00
2022-08-28T01:33:46.378Z,100.00
2022-08-28T01:36:15.772Z,100.00
2022-08-28T01:38:46.321Z,100.00
2022-08-28T01:41:14.061Z,100.00
2022-08-28T01:43:42.868Z,100.00
2022-08-28T01:46:12.514Z,100.00
2022-08-28T01:48:43.827Z,100.00
2022-08-28T01:51:12.531Z,100.00
2022-08-28T01:53:41.280Z,100.00
2022-08-28T01:56:13.999Z,100.00
2022-08-28T01:58:41.871Z,100.00
2022-08-28T02:01:11.652Z,100.00
2022-08-28T02:03:39.605Z,100.00
2022-08-28T02:06:07.191Z,100.00
2022-08-28T02:08:34.616Z,100.00
2022-08-28T02:11:03.531Z,100.00
2022-08-28T02:13:30.889Z,100.00
2022-08-28T02:15:58.620Z,98.76
2022-08-28T02:18:26.134Z,97.75
2022-08-28T02:20:53.514Z,96.78
2022-08-28T02:23:21.153Z,97.86
2022-08-28T02:25:49.891Z,99.10
2022-08-28T02:28:18.382Z,97.50
2022-08-28T02:30:45.831Z,97.81
2022-08-28T02:33:13.375Z,98.48
2022-08-28T02:35:42.510Z,98.34
2022-08-28T02:38:10.567Z,98.11
2022-08-28T02:40:39.044Z,98.65
2022-08-28T02:43:07.348Z,99.03
2022-08-28T02:45:35.225Z,100.00
2022-08-28T02:48:04.624Z,100.00
2022-08-28T02:50:39.624Z,100.00
2022-08-28T02:53:07.371Z,100.00
2022-08-28T02:55:35.230Z,100.00
2022-08-28T02:58:02.669Z,100.00
2022-08-28T03:00:30.135Z,100.00
2022-08-28T03:02:57.672Z,100.00
2022-08-28T03:05:26.107Z,100.00
2022-08-28T03:07:55.773Z,100.00
2022-08-28T03:10:23.475Z,100.00
2022-08-28T03:12:51.775Z,100.00
2022-08-28T03:15:19.824Z,100.00
2022-08-28T03:17:47.841Z,100.00
2022-08-28T03:20:16.768Z,100.00
2022-08-28T03:23:02.782Z,100.00
2022-08-28T03:25:30.410Z,100.00
2022-08-28T03:27:57.947Z,100.00
2022-08-28T03:30:25.964Z,100.00
2022-08-28T03:32:54.070Z,100.00
2022-08-28T03:35:21.924Z,100.00
2022-08-28T03:37:49.312Z,100.00
2022-08-28T03:40:16.905Z,100.00
2022-08-28T03:42:53.046Z,100.00
2022-08-28T03:45:21.765Z,100.00
2022-08-28T03:47:49.662Z,100.00
2022-08-28T03:50:19.689Z,100.00
2022-08-28T03:52:47.613Z,100.00
2022-08-28T03:55:15.210Z,100.00
2022-08-28T03:57:42.890Z,100.00
2022-08-28T04:00:13.315Z,100.00
2022-08-28T04:02:42.339Z,100.00
2022-08-28T04:05:11.085Z,100.00
2022-08-28T04:07:39.483Z,100.00
2022-08-28T04:10:07.552Z,100.00
2022-08-28T04:12:36.038Z,100.00
2022-08-28T04:15:05.689Z,100.00
2022-08-28T04:17:36.844Z,100.00
2022-08-28T04:20:06.091Z,100.00
2022-08-28T04:22:33.685Z,100.00
2022-08-28T04:25:01.133Z,100.00
2022-08-28T04:27:28.714Z,100.00
2022-08-28T04:29:56.174Z,100.00
2022-08-28T04:32:23.722Z,100.00
2022-08-28T04:34:51.437Z,100.00
2022-08-28T04:37:18.910Z,100.00
2022-08-28T04:39:46.409Z,100.00
2022-08-28T04:42:14.765Z,100.00
2022-08-28T04:44:42.305Z,100.00
2022-08-28T04:47:10.149Z,100.00
2022-08-28T04:49:37.851Z,100.00
2022-08-28T04:52:05.565Z,100.00
2022-08-28T04:54:36.204Z,100.00
2022-08-28T04:57:06.461Z,100.00
2022-08-28T04:59:34.430Z,100.00
2022-08-28T05:02:02.075Z,100.00
2022-08-28T05:04:29.675Z,100.00
2022-08-28T05:06:57.109Z,100.00
2022-08-28T05:09:24.591Z,100.00
2022-08-28T05:11:53.471Z,100.00
2022-08-28T05:14:21.848Z,100.00
2022-08-28T05:16:52.789Z,100.00
2022-08-28T05:19:21.574Z,100.00
2022-08-28T05:21:49.173Z,100.00
2022-08-28T05:24:18.114Z,100.00
2022-08-28T05:26:48.186Z,100.00
2022-08-28T05:29:16.912Z,100.00
2022-08-28T05:31:44.785Z,100.00
2022-08-28T05:34:15.249Z,100.00
2022-08-28T05:36:42.734Z,100.00
2022-08-28T05:39:11.658Z,100.00
2022-08-28T05:41:42.435Z,100.00
2022-08-28T05:44:12.239Z,100.00
2022-08-28T05:46:43.635Z,100.00
2022-08-28T05:49:13.114Z,100.00
2022-08-28T05:51:42.265Z,100.00
2022-08-28T05:54:10.627Z,100.00
2022-08-28T05:56:40.754Z,100.00
2022-08-28T05:59:10.286Z,100.00
2022-08-28T06:01:46.747Z,100.00
2022-08-28T06:04:15.989Z,100.00
2022-08-28T06:06:44.207Z,99.72
2022-08-28T06:09:18.097Z,98.26
2022-08-28T06:11:46.569Z,100.00
2022-08-28T06:14:18.083Z,92.60
2022-08-28T06:16:49.871Z,92.91
2022-08-28T06:19:18.150Z,91.45
2022-08-28T06:21:48.117Z,92.60
2022-08-28T06:24:15.573Z,85.85
2022-08-28T06:26:43.070Z,84.44
2022-08-28T06:29:13.240Z,80.81
2022-08-28T06:31:40.628Z,81.59
2022-08-28T06:34:09.389Z,85.18
2022-08-28T06:36:40.272Z,77.48
2022-08-28T06:39:09.879Z,76.70
2022-08-28T06:41:42.967Z,75.73
2022-08-28T06:44:19.818Z,75.19
2022-08-28T06:46:49.982Z,74.57
2022-08-28T06:49:17.595Z,74.33
2022-08-28T06:51:45.056Z,75.27
2022-08-28T06:54:12.577Z,71.18
2022-08-28T06:56:40.040Z,71.13
2022-08-28T06:59:07.332Z,71.12
2022-08-28T07:01:37.062Z,70.86
2022-08-28T07:04:10.869Z,69.61
2022-08-28T07:06:41.770Z,68.20
2022-08-28T07:09:13.614Z,72.06
2022-08-28T07:11:46.657Z,66.48
2022-08-28T07:14:14.459Z,66.77
2022-08-28T07:16:41.922Z,68.37
2022-08-28T07:19:11.301Z,69.37
2022-08-28T07:21:44.718Z,69.68
2022-08-28T07:24:14.712Z,70.58
2022-08-28T07:26:43.712Z,71.66
2022-08-28T07:29:11.874Z,69.69
2022-08-28T07:31:42.260Z,72.15
2022-08-28T07:34:12.274Z,71.51
2022-08-28T07:36:41.203Z,70.91
2022-08-28T07:39:10.673Z,70.36
2022-08-28T07:41:40.336Z,70.26
2022-08-28T07:44:27.856Z,70.81
2022-08-28T07:46:57.403Z,67.30
2022-08-28T07:49:25.352Z,65.12
2022-08-28T07:51:54.039Z,64.98
2022-08-28T07:54:22.990Z,63.84
2022-08-28T07:56:50.944Z,62.87
2022-08-28T07:59:19.612Z,62.13
2022-08-28T08:01:48.602Z,63.71
2022-08-28T08:04:18.026Z,62.00
2022-08-28T08:06:46.918Z,60.40
2022-08-28T08:09:17.907Z,60.18
2022-08-28T08:11:47.346Z,58.88
2022-08-28T08:14:17.877Z,59.71
2022-08-28T08:16:46.722Z,57.82
2022-08-28T08:19:15.874Z,57.77
2022-08-28T08:21:46.060Z,59.02
2022-08-28T08:24:20.933Z,56.30
2022-08-28T08:26:59.888Z,56.90
2022-08-28T08:29:35.635Z,56.91
2022-08-28T08:32:07.151Z,57.51
2022-08-28T08:34:38.521Z,54.57
2022-08-28T08:37:07.197Z,55.96
2022-08-28T08:39:37.793Z,54.29
2022-08-28T08:42:18.538Z,52.50
2022-08-28T08:44:48.353Z,55.61
2022-08-28T08:47:25.090Z,52.53
2022-08-28T08:49:57.414Z,53.05
2022-08-28T08:52:53.096Z,53.85
2022-08-28T08:55:31.526Z,55.52
2022-08-28T08:58:11.378Z,55.44
2022-08-28T09:01:09.794Z,55.22
2022-08-28T09:04:00.563Z,56.46
2022-08-28T09:06:48.330Z,55.90
2022-08-28T09:09:30.734Z,54.98
2022-08-28T09:12:04.901Z,55.25
2022-08-28T09:14:44.241Z,55.61
2022-08-28T09:17:16.164Z,54.14
2022-08-28T09:19:43.619Z,55.62
2022-08-28T09:22:11.047Z,54.51
2022-08-28T09:24:41.259Z,54.77
2022-08-28T09:27:23.846Z,53.59
2022-08-28T09:29:58.204Z,54.14
2022-08-28T09:32:29.998Z,54.60
2022-08-28T09:35:06.372Z,53.34
2022-08-28T09:37:36.463Z,53.45
2022-08-28T09:40:54.616Z,50.65
2022-08-28T09:43:28.227Z,50.22
2022-08-28T09:46:04.936Z,50.78
2022-08-28T09:48:41.240Z,50.88
2022-08-28T09:51:30.492Z,52.36
2022-08-28T09:54:08.071Z,52.30
2022-08-28T09:56:39.997Z,53.82
2022-08-28T09:59:16.569Z,53.43
2022-08-28T10:01:48.773Z,53.26
2022-08-28T10:04:19.620Z,52.38
2022-08-28T10:07:21.614Z,53.44
2022-08-28T10:10:01.447Z,53.10
2022-08-28T10:12:34.932Z,53.79
2022-08-28T10:15:21.024Z,52.04
2022-08-28T10:17:58.746Z,52.46
2022-08-28T10:20:55.141Z,55.09
2022-08-28T10:23:45.435Z,54.96
2022-08-28T10:26:34.852Z,56.02
2022-08-28T10:29:18.846Z,55.97
2022-08-28T10:32:03.837Z,54.50
2022-08-28T10:34:53.201Z,54.82
2022-08-28T10:37:45.043Z,54.06
2022-08-28T10:40:23.095Z,53.38
2022-08-28T10:42:59.404Z,54.59
2022-08-28T10:45:35.916Z,53.56
2022-08-28T10:48:27.834Z,52.53
2022-08-28T10:51:37.602Z,54.63
2022-08-28T10:54:33.600Z,52.59
2022-08-28T10:57:19.553Z,51.87
2022-08-28T10:59:58.506Z,50.11
2022-08-28T11:02:37.584Z,49.78
2022-08-28T11:05:05.977Z,51.03
2022-08-28T11:08:04.345Z,50.63
2022-08-28T11:10:42.539Z,50.64
2022-08-28T11:13:16.303Z,49.44
2022-08-28T11:15:52.230Z,50.13
2022-08-28T11:18:42.461Z,49.02
2022-08-28T11:21:30.296Z,47.88
2022-08-28T11:24:09.772Z,50.20
2022-08-28T11:27:12.735Z,50.83
2022-08-28T11:30:05.540Z,47.14
2022-08-28T11:32:32.886Z,46.26
2022-08-28T11:35:26.686Z,48.41
2022-08-28T11:37:55.008Z,46.58
2022-08-28T11:40:28.571Z,47.97
2022-08-28T11:43:30.306Z,45.97
2022-08-28T11:46:00.656Z,46.70
2022-08-28T11:48:37.890Z,47.37
2022-08-28T11:51:17.265Z,45.88
2022-08-28T11:54:23.276Z,44.08
2022-08-28T11:57:28.480Z,44.74
2022-08-28T12:00:23.323Z,43.71
2022-08-28T12:02:54.157Z,44.81
2022-08-28T12:05:41.941Z,45.04
2022-08-28T12:08:36.404Z,44.56
2022-08-28T12:11:03.996Z,46.00
2022-08-28T12:13:54.908Z,46.46
2022-08-28T12:16:26.901Z,45.47
2022-08-28T12:18:54.393Z,45.23
2022-08-28T12:21:26.059Z,45.70
2022-08-28T12:24:08.947Z,47.96
2022-08-28T12:26:43.677Z,47.19
2022-08-28T12:29:34.104Z,45.66
2022-08-28T12:32:30.541Z,45.55
2022-08-28T12:34:58.160Z,47.18
2022-08-28T12:37:36.846Z,46.70
2022-08-28T12:40:30.316Z,48.38
2022-08-28T12:43:03.972Z,47.19
2022-08-28T12:45:45.359Z,46.56
2022-08-28T12:48:22.841Z,45.64
2022-08-28T12:51:24.760Z,46.61
2022-08-28T12:53:58.698Z,46.97
2022-08-28T12:56:34.056Z,45.42
2022-08-28T12:59:35.320Z,45.86
2022-08-28T13:02:11.574Z,46.80
2022-08-28T13:04:44.411Z,47.59
2022-08-28T13:07:17.918Z,47.85
2022-08-28T13:09:50.363Z,47.26
2022-08-28T13:12:29.039Z,48.18
2022-08-28T13:15:24.370Z,47.43
2022-08-28T13:17:53.099Z,46.75
2022-08-28T13:20:27.544Z,48.83
2022-08-28T13:22:56.694Z,47.19
2022-08-28T13:25:31.312Z,46.87
2022-08-28T13:28:21.388Z,47.01
2022-08-28T13:30:59.327Z,45.52
2022-08-28T13:33:27.218Z,45.40
2022-08-28T13:35:55.191Z,46.61
2022-08-28T13:38:25.033Z,45.79
2022-08-28T13:41:03.441Z,45.30
2022-08-28T13:43:45.309Z,45.78
2022-08-28T13:46:13.051Z,46.13
2022-08-28T13:48:40.447Z,45.52
2022-08-28T13:51:11.247Z,45.42
2022-08-28T13:53:40.452Z,45.91
2022-08-28T13:56:07.932Z,45.26
2022-08-28T13:58:35.407Z,45.13
2022-08-28T14:01:03.135Z,44.90
2022-08-28T14:03:37.526Z,44.74
2022-08-28T14:06:11.233Z,44.90
2022-08-28T14:08:40.724Z,45.87
2022-08-28T14:11:12.610Z,45.46
2022-08-28T14:13:46.871Z,45.30
2022-08-28T14:16:25.230Z,44.38
2022-08-28T14:18:53.238Z,44.89
2022-08-28T14:21:24.694Z,44.86
2022-08-28T14:23:52.322Z,45.71
2022-08-28T14:26:19.731Z,46.28
2022-08-28T14:28:47.371Z,45.42
2022-08-28T14:31:15.725Z,45.62
2022-08-28T14:33:46.815Z,44.92
2022-08-28T14:36:18.973Z,44.96
2022-08-28T14:38:47.053Z,44.84
2022-08-28T14:41:15.055Z,45.47
2022-08-28T14:43:42.533Z,45.62
2022-08-28T14:46:19.223Z,45.79
2022-08-28T14:48:47.990Z,47.32
2022-08-28T14:51:17.292Z,44.97
2022-08-28T14:53:45.003Z,44.45
2022-08-28T14:56:12.484Z,44.64
2022-08-28T14:58:39.979Z,45.29
2022-08-28T15:01:07.556Z,45.36
2022-08-28T15:03:35.258Z,45.34
2022-08-28T15:06:06.286Z,46.55
2022-08-28T15:08:35.073Z,45.86
2022-08-28T15:11:24.141Z,46.20
2022-08-28T15:13:52.742Z,47.15
2022-08-28T15:16:29.667Z,47.64
2022-08-28T15:18:59.631Z,47.39
2022-08-28T15:21:34.271Z,47.47
2022-08-28T15:24:03.767Z,46.90
2022-08-28T15:26:32.798Z,46.55
2022-08-28T15:29:03.000Z,47.38
2022-08-28T15:31:34.654Z,46.86
2022-08-28T15:34:13.431Z,46.86
2022-08-28T15:36:43.276Z,47.21
2022-08-28T15:39:29.803Z,46.55
2022-08-28T15:41:58.350Z,47.97
2022-08-28T15:44:26.293Z,51.10
2022-08-28T15:46:56.947Z,51.16
2022-08-28T15:49:26.263Z,49.95
2022-08-28T15:51:53.954Z,48.21
2022-08-28T15:54:22.773Z,49.86
2022-08-28T15:56:52.791Z,49.53
2022-08-28T15:59:21.627Z,48.69
2022-08-28T16:01:51.494Z,50.48
2022-08-28T16:04:19.136Z,49.90
2022-08-28T16:06:47.904Z,49.37
2022-08-28T16:09:15.367Z,50.63
2022-08-28T16:11:43.978Z,48.81
2022-08-28T16:14:12.183Z,49.41
2022-08-28T16:16:40.198Z,50.73
2022-08-28T16:19:14.219Z,50.90
2022-08-28T16:21:43.133Z,50.99
2022-08-28T16:24:10.513Z,50.10
2022-08-28T16:26:40.574Z,49.45
2022-08-28T16:29:09.192Z,51.12
2022-08-28T16:31:37.011Z,53.09
2022-08-28T16:34:04.791Z,51.55
2022-08-28T16:36:33.490Z,51.02
2022-08-28T16:39:03.932Z,51.73
2022-08-28T16:41:32.120Z,52.42
2022-08-28T16:44:00.484Z,54.15
2022-08-28T16:46:28.983Z,50.29
2022-08-28T16:48:56.596Z,51.60
2022-08-28T16:51:26.937Z,50.59
2022-08-28T16:53:54.944Z,53.13
2022-08-28T16:56:24.128Z,49.66
2022-08-28T16:58:53.130Z,53.69
2022-08-28T17:01:23.880Z,53.21
2022-08-28T17:03:54.598Z,51.85
2022-08-28T17:06:28.422Z,56.37
2022-08-28T17:08:57.315Z,59.49
2022-08-28T17:11:26.556Z,58.12
2022-08-28T17:13:55.344Z,58.44
2022-08-28T17:16:24.501Z,59.95
2022-08-28T17:18:53.043Z,59.71
2022-08-28T17:21:41.319Z,60.84
2022-08-28T17:24:12.561Z,62.92
2022-08-28T17:26:41.730Z,63.63
2022-08-28T17:29:09.573Z,65.09
2022-08-28T17:31:39.065Z,65.72
2022-08-28T17:34:07.530Z,65.87
2022-08-28T17:36:38.143Z,65.81
2022-08-28T17:39:11.497Z,65.54
2022-08-28T17:41:41.892Z,65.78
2022-08-28T17:44:09.824Z,65.87
2022-08-28T17:46:38.451Z,67.41
2022-08-28T17:49:07.685Z,66.60
2022-08-28T17:51:43.760Z,66.52
2022-08-28T17:54:17.833Z,67.78
2022-08-28T17:56:46.449Z,68.45
2022-08-28T17:59:14.644Z,68.33
2022-08-28T18:01:46.011Z,65.35
2022-08-28T18:04:17.875Z,65.93
2022-08-28T18:06:50.519Z,66.82
2022-08-28T18:09:21.804Z,67.13
2022-08-28T18:11:49.307Z,69.06
2022-08-28T18:14:17.032Z,69.04
2022-08-28T18:16:44.874Z,70.41
2022-08-28T18:19:13.669Z,70.83
2022-08-28T18:21:41.328Z,70.18
2022-08-28T18:24:12.872Z,71.67
2022-08-28T18:26:42.569Z,72.29
2022-08-28T18:29:10.946Z,72.99
2022-08-28T18:31:38.803Z,73.36
2022-08-28T18:34:06.609Z,73.39
2022-08-28T18:36:34.173Z,73.32
2022-08-28T18:39:01.691Z,73.61
2022-08-28T18:41:34.519Z,74.25
2022-08-28T18:44:14.245Z,74.25
2022-08-28T18:46:43.914Z,73.48
2022-08-28T18:49:12.256Z,73.56
2022-08-28T18:51:48.339Z,73.13
2022-08-28T18:54:18.175Z,74.07
2022-08-28T18:56:48.318Z,74.31
2022-08-28T18:59:18.114Z,74.01
2022-08-28T19:01:45.722Z,72.93
2022-08-28T19:04:13.596Z,72.21
2022-08-28T19:06:41.963Z,72.85
2022-08-28T19:09:09.401Z,72.45
2022-08-28T19:11:46.896Z,73.79
2022-08-28T19:14:14.253Z,74.57
2022-08-28T19:16:41.715Z,75.14
2022-08-28T19:19:09.143Z,74.69
2022-08-28T19:21:37.914Z,74.77
2022-08-28T19:24:05.836Z,74.78
2022-08-28T19:26:33.764Z,76.12
2022-08-28T19:29:01.363Z,75.18
2022-08-28T19:31:29.589Z,75.54
2022-08-28T19:33:57.947Z,74.92
2022-08-28T19:36:27.463Z,76.78
2022-08-28T19:38:55.269Z,74.73
2022-08-28T19:41:25.344Z,74.46
2022-08-28T19:43:52.967Z,74.98
2022-08-28T19:46:20.717Z,73.46
2022-08-28T19:48:53.042Z,71.18
2022-08-28T19:51:23.912Z,70.40
2022-08-28T19:53:58.213Z,72.96
2022-08-28T19:56:31.497Z,73.98
2022-08-28T19:59:01.551Z,74.10
2022-08-28T20:01:32.030Z,74.34
2022-08-28T20:04:00.185Z,73.94
2022-08-28T20:06:30.362Z,71.87
2022-08-28T20:08:58.401Z,69.85
2022-08-28T20:11:30.260Z,69.14
2022-08-28T20:14:04.549Z,70.75
2022-08-28T20:16:37.056Z,70.79
2022-08-28T20:19:07.881Z,70.83
2022-08-28T20:21:37.925Z,70.24
2022-08-28T20:24:10.528Z,71.61
2022-08-28T20:26:38.190Z,68.99
2022-08-28T20:29:08.601Z,71.79
2022-08-28T20:31:41.104Z,69.04
2022-08-28T20:34:13.690Z,70.87
2022-08-28T20:36:42.073Z,69.79
2022-08-28T20:39:10.672Z,71.25
2022-08-28T20:41:42.313Z,71.87
2022-08-28T20:44:13.628Z,70.81
2022-08-28T20:46:42.170Z,70.46
2022-08-28T20:49:11.466Z,71.11
2022-08-28T20:51:57.713Z,71.61
2022-08-28T20:54:30.606Z,72.52
2022-08-28T20:57:02.596Z,73.94
2022-08-28T20:59:39.270Z,74.16
2022-08-28T21:02:11.544Z,73.67
2022-08-28T21:04:40.546Z,74.53
2022-08-28T21:07:08.945Z,73.69
2022-08-28T21:10:07.249Z,74.93
2022-08-28T21:12:24.599Z,73.82
2022-08-28T21:14:52.990Z,74.13
2022-08-28T21:17:29.687Z,73.42
2022-08-28T21:20:04.228Z,68.52
2022-08-28T21:22:32.810Z,65.59
2022-08-28T21:25:01.232Z,68.24
2022-08-28T21:27:28.853Z,64.43
2022-08-28T21:29:58.848Z,63.88
2022-08-28T21:32:28.423Z,61.90
2022-08-28T21:34:56.043Z,62.06
2022-08-28T21:37:23.904Z,63.08
2022-08-28T21:39:51.333Z,63.91
2022-08-28T21:42:19.826Z,63.74
2022-08-28T21:44:51.859Z,63.85
2022-08-28T21:47:23.283Z,64.81
2022-08-28T21:49:53.204Z,65.30
2022-08-28T21:52:22.198Z,66.31
2022-08-28T21:54:49.999Z,66.82
2022-08-28T21:57:19.439Z,67.01
2022-08-28T21:59:48.729Z,67.18
2022-08-28T22:02:16.282Z,68.54
2022-08-28T22:04:43.692Z,69.69
2022-08-28T22:07:14.376Z,70.65
2022-08-28T22:09:43.230Z,70.29
2022-08-28T22:12:12.666Z,71.04
2022-08-28T22:14:40.414Z,70.86
2022-08-28T22:17:11.242Z,70.58
2022-08-28T22:19:40.822Z,70.70
2022-08-28T22:22:27.510Z,70.47
2022-08-28T22:24:54.962Z,69.19
2022-08-28T22:27:22.603Z,72.55
2022-08-28T22:29:50.882Z,71.37
2022-08-28T22:32:18.712Z,74.60
2022-08-28T22:34:46.189Z,74.90
2022-08-28T22:37:13.989Z,76.42
2022-08-28T22:39:43.169Z,76.87
2022-08-28T22:42:10.962Z,77.96
2022-08-28T22:44:38.966Z,78.01
2022-08-28T22:47:07.285Z,79.25
2022-08-28T22:49:36.027Z,80.36
2022-08-28T22:52:10.609Z,80.04
2022-08-28T22:54:40.145Z,81.95
2022-08-28T22:57:08.097Z,82.48
2022-08-28T22:59:35.923Z,82.98
2022-08-28T23:02:04.148Z,81.72
2022-08-28T23:04:31.708Z,82.83
2022-08-28T23:06:59.855Z,84.76
2022-08-28T23:09:27.641Z,86.21
2022-08-28T23:11:55.080Z,86.88
2022-08-28T23:14:28.085Z,90.27
2022-08-28T23:16:56.510Z,92.00
2022-08-28T23:19:25.963Z,91.64
2022-08-28T23:21:53.928Z,91.02
2022-08-28T23:24:21.365Z,89.64
2022-08-28T23:26:49.448Z,90.12
2022-08-28T23:29:18.346Z,92.05
2022-08-28T23:31:45.989Z,92.35
2022-08-28T23:34:16.067Z,92.61
2022-08-28T23:36:43.683Z,93.30
2022-08-28T23:39:11.828Z,92.19
2022-08-28T23:41:39.578Z,93.89
2022-08-28T23:44:08.946Z,93.45
2022-08-28T23:46:41.679Z,93.18
2022-08-28T23:49:11.381Z,92.61
2022-08-28T23:51:40.698Z,91.37
2022-08-28T23:54:09.708Z,92.38
2022-08-28T23:56:38.927Z,90.56
2022-08-28T23:59:07.681Z,90.99
